sensor_id;sensor_type;location;lat;lon;timestamp;P1;durP1;ratioP1;P2;durP2;ratioP2
71869;SDS011;59739;47.696;11.746;2024-02-16T00:00:29;0.88;;;0.60;;
71869;SDS011;59739;47.696;11.746;2024-02-16T00:02:56;0.70;;;0.60;;
71869;SDS011;59739;47.696;11.746;2024-02-16T00:05:22;1.23;;;0.73;;
71869;SDS011;59739;47.696;11.746;2024-02-16T00:07:48;1.77;;;0.80;;
71869;SDS011;59739;47.696;11.746;2024-02-16T00:10:14;1.05;;;0.52;;
71869;SDS011;59739;47.696;11.746;2024-02-16T00:12:40;3.42;;;0.80;;
71869;SDS011;59739;47.696;11.746;2024-02-16T00:15:07;1.30;;;0.80;;
71869;SDS011;59739;47.696;11.746;2024-02-16T00:17:33;0.88;;;0.60;;
71869;SDS011;59739;47.696;11.746;2024-02-16T00:19:59;1.05;;;0.60;;
71869;SDS011;59739;47.696;11.746;2024-02-16T00:22:25;0.80;;;0.63;;
71869;SDS011;59739;47.696;11.746;2024-02-16T00:24:51;2.22;;;0.90;;
71869;SDS011;59739;47.696;11.746;2024-02-16T00:27:17;0.93;;;0.70;;
71869;SDS011;59739;47.696;11.746;2024-02-16T00:29:44;1.02;;;0.80;;
71869;SDS011;59739;47.696;11.746;2024-02-16T00:32:11;1.58;;;0.70;;
71869;SDS011;59739;47.696;11.746;2024-02-16T00:34:38;0.93;;;0.63;;
71869;SDS011;59739;47.696;11.746;2024-02-16T00:37:06;1.10;;;0.63;;
71869;SDS011;59739;47.696;11.746;2024-02-16T00:39:35;2.00;;;0.63;;
71869;SDS011;59739;47.696;11.746;2024-02-16T00:42:02;0.73;;;0.60;;
71869;SDS011;59739;47.696;11.746;2024-02-16T00:44:28;1.00;;;0.57;;
71869;SDS011;59739;47.696;11.746;2024-02-16T00:46:54;1.23;;;0.70;;
71869;SDS011;59739;47.696;11.746;2024-02-16T00:49:20;1.02;;;0.90;;
71869;SDS011;59739;47.696;11.746;2024-02-16T00:51:46;1.55;;;0.60;;
71869;SDS011;59739;47.696;11.746;2024-02-16T00:54:12;1.08;;;0.55;;
71869;SDS011;59739;47.696;11.746;2024-02-16T00:56:38;1.25;;;0.70;;
71869;SDS011;59739;47.696;11.746;2024-02-16T00:59:04;1.10;;;0.80;;
71869;SDS011;59739;47.696;11.746;2024-02-16T01:01:30;1.00;;;0.73;;
71869;SDS011;59739;47.696;11.746;2024-02-16T01:03:56;0.98;;;0.80;;
71869;SDS011;59739;47.696;11.746;2024-02-16T01:06:22;1.33;;;0.65;;
71869;SDS011;59739;47.696;11.746;2024-02-16T01:08:48;1.67;;;0.80;;
71869;SDS011;59739;47.696;11.746;2024-02-16T01:11:14;0.80;;;0.70;;
71869;SDS011;59739;47.696;11.746;2024-02-16T01:13:40;1.30;;;0.75;;
71869;SDS011;59739;47.696;11.746;2024-02-16T01:16:06;1.00;;;0.60;;
71869;SDS011;59739;47.696;11.746;2024-02-16T01:18:32;1.13;;;0.70;;
71869;SDS011;59739;47.696;11.746;2024-02-16T01:21:01;2.20;;;0.57;;
71869;SDS011;59739;47.696;11.746;2024-02-16T01:23:28;1.83;;;0.63;;
71869;SDS011;59739;47.696;11.746;2024-02-16T01:25:54;0.82;;;0.63;;
71869;SDS011;59739;47.696;11.746;2024-02-16T01:28:20;1.02;;;0.80;;
71869;SDS011;59739;47.696;11.746;2024-02-16T01:30:47;1.77;;;0.63;;
71869;SDS011;59739;47.696;11.746;2024-02-16T01:33:12;1.08;;;0.80;;
71869;SDS011;59739;47.696;11.746;2024-02-16T01:35:38;1.15;;;0.82;;
71869;SDS011;59739;47.696;11.746;2024-02-16T01:38:04;0.90;;;0.55;;
71869;SDS011;59739;47.696;11.746;2024-02-16T01:40:30;1.17;;;0.68;;
71869;SDS011;59739;47.696;11.746;2024-02-16T01:42:56;0.68;;;0.60;;
71869;SDS011;59739;47.696;11.746;2024-02-16T01:45:23;0.98;;;0.60;;
71869;SDS011;59739;47.696;11.746;2024-02-16T01:47:52;1.08;;;0.80;;
71869;SDS011;59739;47.696;11.746;2024-02-16T01:50:19;0.45;;;0.45;;
71869;SDS011;59739;47.696;11.746;2024-02-16T01:52:47;0.45;;;0.45;;
71869;SDS011;59739;47.696;11.746;2024-02-16T01:55:15;1.23;;;0.60;;
71869;SDS011;59739;47.696;11.746;2024-02-16T01:57:44;0.77;;;0.55;;
71869;SDS011;59739;47.696;11.746;2024-02-16T02:00:12;2.03;;;0.80;;
71869;SDS011;59739;47.696;11.746;2024-02-16T02:02:46;3.03;;;0.65;;
71869;SDS011;59739;47.696;11.746;2024-02-16T02:05:12;0.93;;;0.70;;
71869;SDS011;59739;47.696;11.746;2024-02-16T02:07:40;1.42;;;0.50;;
71869;SDS011;59739;47.696;11.746;2024-02-16T02:10:06;0.82;;;0.50;;
71869;SDS011;59739;47.696;11.746;2024-02-16T02:12:32;0.55;;;0.50;;
71869;SDS011;59739;47.696;11.746;2024-02-16T02:14:58;0.60;;;0.40;;
71869;SDS011;59739;47.696;11.746;2024-02-16T02:17:24;0.68;;;0.57;;
71869;SDS011;59739;47.696;11.746;2024-02-16T02:19:50;0.73;;;0.55;;
71869;SDS011;59739;47.696;11.746;2024-02-16T02:22:19;2.65;;;0.70;;
71869;SDS011;59739;47.696;11.746;2024-02-16T02:24:46;0.85;;;0.68;;
71869;SDS011;59739;47.696;11.746;2024-02-16T02:27:13;0.50;;;0.50;;
71869;SDS011;59739;47.696;11.746;2024-02-16T02:29:40;0.68;;;0.52;;
71869;SDS011;59739;47.696;11.746;2024-02-16T02:32:07;0.70;;;0.70;;
71869;SDS011;59739;47.696;11.746;2024-02-16T02:34:33;0.70;;;0.57;;
71869;SDS011;59739;47.696;11.746;2024-02-16T02:37:01;0.50;;;0.50;;
71869;SDS011;59739;47.696;11.746;2024-02-16T02:39:29;1.00;;;0.70;;
71869;SDS011;59739;47.696;11.746;2024-02-16T02:41:56;1.92;;;0.80;;
71869;SDS011;59739;47.696;11.746;2024-02-16T02:44:23;1.48;;;0.77;;
71869;SDS011;59739;47.696;11.746;2024-02-16T02:46:50;1.15;;;0.77;;
71869;SDS011;59739;47.696;11.746;2024-02-16T02:49:17;1.30;;;0.70;;
71869;SDS011;59739;47.696;11.746;2024-02-16T02:51:43;0.80;;;0.50;;
71869;SDS011;59739;47.696;11.746;2024-02-16T02:54:09;0.50;;;0.50;;
71869;SDS011;59739;47.696;11.746;2024-02-16T02:56:34;1.33;;;0.73;;
71869;SDS011;59739;47.696;11.746;2024-02-16T02:59:00;0.90;;;0.70;;
71869;SDS011;59739;47.696;11.746;2024-02-16T03:01:26;1.23;;;0.70;;
71869;SDS011;59739;47.696;11.746;2024-02-16T03:03:53;2.92;;;0.73;;
71869;SDS011;59739;47.696;11.746;2024-02-16T03:06:19;0.93;;;0.60;;
71869;SDS011;59739;47.696;11.746;2024-02-16T03:08:45;1.73;;;0.73;;
71869;SDS011;59739;47.696;11.746;2024-02-16T03:11:12;1.67;;;0.60;;
71869;SDS011;59739;47.696;11.746;2024-02-16T03:13:38;1.17;;;0.55;;
71869;SDS011;59739;47.696;11.746;2024-02-16T03:16:05;1.02;;;0.70;;
71869;SDS011;59739;47.696;11.746;2024-02-16T03:18:31;0.90;;;0.70;;
71869;SDS011;59739;47.696;11.746;2024-02-16T03:20:59;1.25;;;0.82;;
71869;SDS011;59739;47.696;11.746;2024-02-16T03:23:25;1.58;;;1.02;;
71869;SDS011;59739;47.696;11.746;2024-02-16T03:25:51;1.55;;;0.70;;
71869;SDS011;59739;47.696;11.746;2024-02-16T03:28:17;1.85;;;0.73;;
71869;SDS011;59739;47.696;11.746;2024-02-16T03:30:43;1.95;;;0.70;;
71869;SDS011;59739;47.696;11.746;2024-02-16T03:33:09;0.98;;;0.60;;
71869;SDS011;59739;47.696;11.746;2024-02-16T03:35:36;1.75;;;0.60;;
71869;SDS011;59739;47.696;11.746;2024-02-16T03:38:04;1.70;;;0.50;;
71869;SDS011;59739;47.696;11.746;2024-02-16T03:40:31;0.90;;;0.60;;
71869;SDS011;59739;47.696;11.746;2024-02-16T03:42:57;0.95;;;0.50;;
71869;SDS011;59739;47.696;11.746;2024-02-16T03:45:23;1.70;;;0.68;;
71869;SDS011;59739;47.696;11.746;2024-02-16T03:47:52;0.95;;;0.60;;
71869;SDS011;59739;47.696;11.746;2024-02-16T03:50:18;0.90;;;0.63;;
71869;SDS011;59739;47.696;11.746;2024-02-16T03:52:45;0.88;;;0.70;;
71869;SDS011;59739;47.696;11.746;2024-02-16T03:55:11;1.55;;;0.63;;
71869;SDS011;59739;47.696;11.746;2024-02-16T03:57:37;0.93;;;0.60;;
71869;SDS011;59739;47.696;11.746;2024-02-16T04:00:04;1.13;;;0.40;;
71869;SDS011;59739;47.696;11.746;2024-02-16T04:02:37;1.50;;;0.50;;
71869;SDS011;59739;47.696;11.746;2024-02-16T04:05:04;0.88;;;0.70;;
71869;SDS011;59739;47.696;11.746;2024-02-16T04:07:32;1.50;;;0.70;;
71869;SDS011;59739;47.696;11.746;2024-02-16T04:09:59;1.13;;;0.88;;
71869;SDS011;59739;47.696;11.746;2024-02-16T04:12:25;0.80;;;0.70;;
71869;SDS011;59739;47.696;11.746;2024-02-16T04:14:51;1.25;;;0.75;;
71869;SDS011;59739;47.696;11.746;2024-02-16T04:17:17;0.47;;;0.45;;
71869;SDS011;59739;47.696;11.746;2024-02-16T04:19:43;1.33;;;0.55;;
71869;SDS011;59739;47.696;11.746;2024-02-16T04:22:09;0.40;;;0.40;;
71869;SDS011;59739;47.696;11.746;2024-02-16T04:24:35;1.15;;;0.70;;
71869;SDS011;59739;47.696;11.746;2024-02-16T04:27:01;0.50;;;0.40;;
71869;SDS011;59739;47.696;11.746;2024-02-16T04:29:27;0.70;;;0.60;;
71869;SDS011;59739;47.696;11.746;2024-02-16T04:31:53;0.45;;;0.30;;
71869;SDS011;59739;47.696;11.746;2024-02-16T04:34:19;1.23;;;0.70;;
71869;SDS011;59739;47.696;11.746;2024-02-16T04:36:44;0.47;;;0.40;;
71869;SDS011;59739;47.696;11.746;2024-02-16T04:39:10;1.73;;;0.40;;
71869;SDS011;59739;47.696;11.746;2024-02-16T04:41:37;1.20;;;0.50;;
71869;SDS011;59739;47.696;11.746;2024-02-16T04:44:03;1.42;;;0.80;;
71869;SDS011;59739;47.696;11.746;2024-02-16T04:46:29;1.88;;;0.88;;
71869;SDS011;59739;47.696;11.746;2024-02-16T04:48:55;1.38;;;0.80;;
71869;SDS011;59739;47.696;11.746;2024-02-16T04:51:21;14.43;;;5.20;;
71869;SDS011;59739;47.696;11.746;2024-02-16T04:53:47;10.68;;;4.50;;
71869;SDS011;59739;47.696;11.746;2024-02-16T04:56:13;2.13;;;0.90;;
71869;SDS011;59739;47.696;11.746;2024-02-16T04:58:42;2.53;;;1.05;;
71869;SDS011;59739;47.696;11.746;2024-02-16T05:01:08;4.35;;;2.17;;
71869;SDS011;59739;47.696;11.746;2024-02-16T05:03:34;5.40;;;2.05;;
71869;SDS011;59739;47.696;11.746;2024-02-16T05:06:00;7.20;;;2.47;;
71869;SDS011;59739;47.696;11.746;2024-02-16T05:08:26;2.30;;;1.30;;
71869;SDS011;59739;47.696;11.746;2024-02-16T05:10:52;2.38;;;1.00;;
71869;SDS011;59739;47.696;11.746;2024-02-16T05:13:18;2.13;;;0.82;;
71869;SDS011;59739;47.696;11.746;2024-02-16T05:15:44;0.98;;;0.63;;
71869;SDS011;59739;47.696;11.746;2024-02-16T05:18:12;1.05;;;0.90;;
71869;SDS011;59739;47.696;11.746;2024-02-16T05:20:38;1.20;;;0.80;;
71869;SDS011;59739;47.696;11.746;2024-02-16T05:23:04;0.77;;;0.77;;
71869;SDS011;59739;47.696;11.746;2024-02-16T05:25:30;1.73;;;0.80;;
71869;SDS011;59739;47.696;11.746;2024-02-16T05:27:56;2.47;;;0.80;;
71869;SDS011;59739;47.696;11.746;2024-02-16T05:30:22;0.70;;;0.70;;
71869;SDS011;59739;47.696;11.746;2024-02-16T05:32:48;1.08;;;0.85;;
71869;SDS011;59739;47.696;11.746;2024-02-16T05:35:14;1.23;;;0.95;;
71869;SDS011;59739;47.696;11.746;2024-02-16T05:37:42;0.73;;;0.70;;
71869;SDS011;59739;47.696;11.746;2024-02-16T05:40:12;1.37;;;0.70;;
71869;SDS011;59739;47.696;11.746;2024-02-16T05:42:51;1.45;;;0.70;;
71869;SDS011;59739;47.696;11.746;2024-02-16T05:45:19;1.25;;;0.80;;
71869;SDS011;59739;47.696;11.746;2024-02-16T05:47:48;1.13;;;0.88;;
71869;SDS011;59739;47.696;11.746;2024-02-16T05:50:15;1.15;;;0.73;;
71869;SDS011;59739;47.696;11.746;2024-02-16T05:52:42;1.00;;;0.80;;
71869;SDS011;59739;47.696;11.746;2024-02-16T05:55:09;1.33;;;0.70;;
71869;SDS011;59739;47.696;11.746;2024-02-16T05:57:36;0.77;;;0.60;;
71869;SDS011;59739;47.696;11.746;2024-02-16T06:00:03;1.63;;;0.80;;
71869;SDS011;59739;47.696;11.746;2024-02-16T06:02:32;1.60;;;0.63;;
71869;SDS011;59739;47.696;11.746;2024-02-16T06:04:59;1.50;;;1.00;;
71869;SDS011;59739;47.696;11.746;2024-02-16T06:07:26;1.02;;;0.80;;
71869;SDS011;59739;47.696;11.746;2024-02-16T06:09:52;1.40;;;1.10;;
71869;SDS011;59739;47.696;11.746;2024-02-16T06:12:19;2.08;;;1.05;;
71869;SDS011;59739;47.696;11.746;2024-02-16T06:14:45;1.77;;;1.10;;
71869;SDS011;59739;47.696;11.746;2024-02-16T06:17:13;4.25;;;1.00;;
71869;SDS011;59739;47.696;11.746;2024-02-16T06:19:43;1.02;;;0.90;;
71869;SDS011;59739;47.696;11.746;2024-02-16T06:22:09;0.93;;;0.70;;
71869;SDS011;59739;47.696;11.746;2024-02-16T06:24:35;5.28;;;1.10;;
71869;SDS011;59739;47.696;11.746;2024-02-16T06:27:03;3.42;;;1.20;;
71869;SDS011;59739;47.696;11.746;2024-02-16T06:29:29;1.23;;;1.05;;
71869;SDS011;59739;47.696;11.746;2024-02-16T06:31:56;1.23;;;0.82;;
71869;SDS011;59739;47.696;11.746;2024-02-16T06:34:22;1.83;;;0.98;;
71869;SDS011;59739;47.696;11.746;2024-02-16T06:36:48;3.00;;;1.08;;
71869;SDS011;59739;47.696;11.746;2024-02-16T06:39:15;1.48;;;0.77;;
71869;SDS011;59739;47.696;11.746;2024-02-16T06:41:43;4.38;;;1.10;;
71869;SDS011;59739;47.696;11.746;2024-02-16T06:44:14;6.95;;;2.88;;
71869;SDS011;59739;47.696;11.746;2024-02-16T06:46:41;2.83;;;2.00;;
71869;SDS011;59739;47.696;11.746;2024-02-16T06:49:08;3.80;;;2.50;;
71869;SDS011;59739;47.696;11.746;2024-02-16T06:51:35;6.38;;;2.00;;
71869;SDS011;59739;47.696;11.746;2024-02-16T06:54:02;1.92;;;1.10;;
71869;SDS011;59739;47.696;11.746;2024-02-16T06:56:29;15.48;;;10.60;;
71869;SDS011;59739;47.696;11.746;2024-02-16T06:58:56;18.27;;;12.02;;
71869;SDS011;59739;47.696;11.746;2024-02-16T07:01:22;7.97;;;5.40;;
71869;SDS011;59739;47.696;11.746;2024-02-16T07:03:48;5.00;;;3.55;;
71869;SDS011;59739;47.696;11.746;2024-02-16T07:06:14;3.85;;;2.78;;
71869;SDS011;59739;47.696;11.746;2024-02-16T07:08:40;4.65;;;2.58;;
71869;SDS011;59739;47.696;11.746;2024-02-16T07:11:07;3.42;;;2.38;;
71869;SDS011;59739;47.696;11.746;2024-02-16T07:13:33;2.92;;;1.90;;
71869;SDS011;59739;47.696;11.746;2024-02-16T07:16:00;3.88;;;2.20;;
71869;SDS011;59739;47.696;11.746;2024-02-16T07:18:26;12.00;;;4.75;;
71869;SDS011;59739;47.696;11.746;2024-02-16T07:20:52;3.30;;;1.65;;
71869;SDS011;59739;47.696;11.746;2024-02-16T07:23:18;2.47;;;1.10;;
71869;SDS011;59739;47.696;11.746;2024-02-16T07:25:44;3.60;;;1.20;;
71869;SDS011;59739;47.696;11.746;2024-02-16T07:28:11;5.38;;;1.45;;
71869;SDS011;59739;47.696;11.746;2024-02-16T07:30:37;2.15;;;1.05;;
71869;SDS011;59739;47.696;11.746;2024-02-16T07:33:06;2.72;;;1.00;;
71869;SDS011;59739;47.696;11.746;2024-02-16T07:35:32;1.60;;;1.15;;
71869;SDS011;59739;47.696;11.746;2024-02-16T07:38:00;2.25;;;1.50;;
71869;SDS011;59739;47.696;11.746;2024-02-16T07:40:28;1.73;;;1.27;;
71869;SDS011;59739;47.696;11.746;2024-02-16T07:42:54;1.80;;;1.20;;
71869;SDS011;59739;47.696;11.746;2024-02-16T07:45:20;1.88;;;1.33;;
71869;SDS011;59739;47.696;11.746;2024-02-16T07:47:47;1.73;;;1.42;;
71869;SDS011;59739;47.696;11.746;2024-02-16T07:50:13;2.97;;;1.42;;
71869;SDS011;59739;47.696;11.746;2024-02-16T07:52:43;1.30;;;0.95;;
71869;SDS011;59739;47.696;11.746;2024-02-16T07:55:09;2.30;;;1.20;;
71869;SDS011;59739;47.696;11.746;2024-02-16T07:57:35;3.08;;;1.20;;
71869;SDS011;59739;47.696;11.746;2024-02-16T08:00:01;1.90;;;1.20;;
71869;SDS011;59739;47.696;11.746;2024-02-16T08:02:30;3.53;;;1.77;;
71869;SDS011;59739;47.696;11.746;2024-02-16T08:04:56;1.77;;;1.00;;
71869;SDS011;59739;47.696;11.746;2024-02-16T08:07:21;3.60;;;1.80;;
71869;SDS011;59739;47.696;11.746;2024-02-16T08:09:47;4.57;;;2.17;;
71869;SDS011;59739;47.696;11.746;2024-02-16T08:12:14;4.78;;;2.72;;
71869;SDS011;59739;47.696;11.746;2024-02-16T08:14:40;4.65;;;2.67;;
71869;SDS011;59739;47.696;11.746;2024-02-16T08:17:07;3.78;;;1.80;;
71869;SDS011;59739;47.696;11.746;2024-02-16T08:19:34;1.98;;;1.33;;
71869;SDS011;59739;47.696;11.746;2024-02-16T08:22:05;2.30;;;1.30;;
71869;SDS011;59739;47.696;11.746;2024-02-16T08:24:34;1.77;;;1.33;;
71869;SDS011;59739;47.696;11.746;2024-02-16T08:27:01;1.45;;;1.25;;
71869;SDS011;59739;47.696;11.746;2024-02-16T08:29:29;3.30;;;1.42;;
71869;SDS011;59739;47.696;11.746;2024-02-16T08:31:55;4.40;;;1.58;;
71869;SDS011;59739;47.696;11.746;2024-02-16T08:34:21;1.52;;;1.00;;
71869;SDS011;59739;47.696;11.746;2024-02-16T08:36:48;2.75;;;1.05;;
71869;SDS011;59739;47.696;11.746;2024-02-16T08:39:15;2.58;;;1.35;;
71869;SDS011;59739;47.696;11.746;2024-02-16T08:41:42;4.47;;;1.70;;
71869;SDS011;59739;47.696;11.746;2024-02-16T08:44:13;2.90;;;1.58;;
71869;SDS011;59739;47.696;11.746;2024-02-16T08:46:39;3.50;;;1.10;;
71869;SDS011;59739;47.696;11.746;2024-02-16T08:49:06;1.58;;;1.33;;
71869;SDS011;59739;47.696;11.746;2024-02-16T08:51:32;2.17;;;1.00;;
71869;SDS011;59739;47.696;11.746;2024-02-16T08:53:59;1.33;;;1.17;;
71869;SDS011;59739;47.696;11.746;2024-02-16T08:56:27;1.13;;;0.90;;
71869;SDS011;59739;47.696;11.746;2024-02-16T08:58:53;2.53;;;1.10;;
71869;SDS011;59739;47.696;11.746;2024-02-16T09:01:36;1.50;;;1.00;;
71869;SDS011;59739;47.696;11.746;2024-02-16T09:04:05;2.13;;;1.02;;
71869;SDS011;59739;47.696;11.746;2024-02-16T09:06:31;1.90;;;1.05;;
71869;SDS011;59739;47.696;11.746;2024-02-16T09:08:59;2.33;;;1.13;;
71869;SDS011;59739;47.696;11.746;2024-02-16T09:11:26;1.55;;;1.05;;
71869;SDS011;59739;47.696;11.746;2024-02-16T09:13:52;3.28;;;0.95;;
71869;SDS011;59739;47.696;11.746;2024-02-16T09:16:19;2.10;;;1.50;;
71869;SDS011;59739;47.696;11.746;2024-02-16T09:18:46;1.58;;;1.00;;
71869;SDS011;59739;47.696;11.746;2024-02-16T09:21:15;3.40;;;1.13;;
71869;SDS011;59739;47.696;11.746;2024-02-16T09:23:41;3.17;;;1.50;;
71869;SDS011;59739;47.696;11.746;2024-02-16T09:26:07;1.77;;;1.15;;
71869;SDS011;59739;47.696;11.746;2024-02-16T09:28:39;2.85;;;1.30;;
71869;SDS011;59739;47.696;11.746;2024-02-16T09:31:06;2.80;;;1.70;;
71869;SDS011;59739;47.696;11.746;2024-02-16T09:33:33;3.15;;;1.50;;
71869;SDS011;59739;47.696;11.746;2024-02-16T09:36:00;1.88;;;1.27;;
71869;SDS011;59739;47.696;11.746;2024-02-16T09:38:26;2.85;;;1.38;;
71869;SDS011;59739;47.696;11.746;2024-02-16T09:40:52;3.58;;;1.20;;
71869;SDS011;59739;47.696;11.746;2024-02-16T09:43:24;2.63;;;1.20;;
71869;SDS011;59739;47.696;11.746;2024-02-16T09:45:55;5.18;;;1.23;;
71869;SDS011;59739;47.696;11.746;2024-02-16T09:48:24;2.97;;;1.20;;
71869;SDS011;59739;47.696;11.746;2024-02-16T09:50:55;2.13;;;1.25;;
71869;SDS011;59739;47.696;11.746;2024-02-16T09:55:51;2.65;;;1.20;;
71869;SDS011;59739;47.696;11.746;2024-02-16T09:58:18;3.05;;;1.08;;
71869;SDS011;59739;47.696;11.746;2024-02-16T10:00:48;3.13;;;1.25;;
71869;SDS011;59739;47.696;11.746;2024-02-16T10:06:03;4.20;;;1.10;;
71869;SDS011;59739;47.696;11.746;2024-02-16T10:11:27;1.40;;;1.10;;
71869;SDS011;59739;47.696;11.746;2024-02-16T10:13:57;2.45;;;0.95;;
71869;SDS011;59739;47.696;11.746;2024-02-16T10:16:23;3.85;;;1.13;;
71869;SDS011;59739;47.696;11.746;2024-02-16T10:18:50;4.43;;;1.38;;
71869;SDS011;59739;47.696;11.746;2024-02-16T10:21:29;4.68;;;0.98;;
71869;SDS011;59739;47.696;11.746;2024-02-16T10:24:20;2.25;;;0.85;;
71869;SDS011;59739;47.696;11.746;2024-02-16T10:26:47;1.38;;;1.02;;
71869;SDS011;59739;47.696;11.746;2024-02-16T10:29:14;4.75;;;1.38;;
71869;SDS011;59739;47.696;11.746;2024-02-16T10:31:45;1.70;;;1.00;;
71869;SDS011;59739;47.696;11.746;2024-02-16T10:34:11;2.00;;;1.10;;
71869;SDS011;59739;47.696;11.746;2024-02-16T10:36:37;4.35;;;1.17;;
71869;SDS011;59739;47.696;11.746;2024-02-16T10:39:13;4.15;;;1.10;;
71869;SDS011;59739;47.696;11.746;2024-02-16T10:41:41;4.20;;;1.25;;
71869;SDS011;59739;47.696;11.746;2024-02-16T10:44:08;5.65;;;1.25;;
71869;SDS011;59739;47.696;11.746;2024-02-16T10:46:34;3.45;;;1.20;;
71869;SDS011;59739;47.696;11.746;2024-02-16T10:49:01;3.88;;;1.10;;
71869;SDS011;59739;47.696;11.746;2024-02-16T10:51:31;1.50;;;1.10;;
71869;SDS011;59739;47.696;11.746;2024-02-16T10:54:01;3.08;;;1.30;;
71869;SDS011;59739;47.696;11.746;2024-02-16T10:59:03;2.35;;;1.30;;
71869;SDS011;59739;47.696;11.746;2024-02-16T11:01:42;1.52;;;1.13;;
71869;SDS011;59739;47.696;11.746;2024-02-16T11:04:14;1.92;;;1.35;;
71869;SDS011;59739;47.696;11.746;2024-02-16T11:06:46;2.30;;;1.10;;
71869;SDS011;59739;47.696;11.746;2024-02-16T11:12:02;2.78;;;1.10;;
71869;SDS011;59739;47.696;11.746;2024-02-16T11:14:43;2.33;;;1.10;;
71869;SDS011;59739;47.696;11.746;2024-02-16T11:17:16;2.15;;;1.13;;
71869;SDS011;59739;47.696;11.746;2024-02-16T11:19:47;2.90;;;1.13;;
71869;SDS011;59739;47.696;11.746;2024-02-16T11:22:17;1.77;;;1.05;;
71869;SDS011;59739;47.696;11.746;2024-02-16T11:24:50;1.13;;;1.00;;
71869;SDS011;59739;47.696;11.746;2024-02-16T11:27:19;3.67;;;1.02;;
71869;SDS011;59739;47.696;11.746;2024-02-16T11:29:46;2.17;;;1.05;;
71869;SDS011;59739;47.696;11.746;2024-02-16T11:32:13;2.08;;;1.10;;
71869;SDS011;59739;47.696;11.746;2024-02-16T11:34:39;1.63;;;0.90;;
71869;SDS011;59739;47.696;11.746;2024-02-16T11:37:06;4.43;;;1.13;;
71869;SDS011;59739;47.696;11.746;2024-02-16T11:39:32;2.47;;;1.10;;
71869;SDS011;59739;47.696;11.746;2024-02-16T11:42:03;2.22;;;0.90;;
71869;SDS011;59739;47.696;11.746;2024-02-16T11:44:50;2.10;;;1.20;;
71869;SDS011;59739;47.696;11.746;2024-02-16T11:47:22;2.28;;;1.35;;
71869;SDS011;59739;47.696;11.746;2024-02-16T11:50:03;2.03;;;1.23;;
71869;SDS011;59739;47.696;11.746;2024-02-16T11:52:31;2.25;;;0.95;;
71869;SDS011;59739;47.696;11.746;2024-02-16T11:54:57;1.98;;;1.27;;
71869;SDS011;59739;47.696;11.746;2024-02-16T11:57:28;1.83;;;1.08;;
71869;SDS011;59739;47.696;11.746;2024-02-16T11:59:55;1.85;;;0.80;;
71869;SDS011;59739;47.696;11.746;2024-02-16T12:02:23;1.27;;;1.00;;
71869;SDS011;59739;47.696;11.746;2024-02-16T12:04:57;1.85;;;1.05;;
71869;SDS011;59739;47.696;11.746;2024-02-16T12:07:26;1.15;;;0.70;;
71869;SDS011;59739;47.696;11.746;2024-02-16T12:09:57;2.92;;;0.80;;
71869;SDS011;59739;47.696;11.746;2024-02-16T12:12:24;2.05;;;0.60;;
71869;SDS011;59739;47.696;11.746;2024-02-16T12:14:52;1.17;;;0.90;;
71869;SDS011;59739;47.696;11.746;2024-02-16T12:17:19;3.65;;;1.00;;
71869;SDS011;59739;47.696;11.746;2024-02-16T12:19:46;1.65;;;0.70;;
71869;SDS011;59739;47.696;11.746;2024-02-16T12:22:19;3.10;;;0.88;;
71869;SDS011;59739;47.696;11.746;2024-02-16T12:24:46;2.28;;;0.80;;
71869;SDS011;59739;47.696;11.746;2024-02-16T12:27:14;1.17;;;0.60;;
71869;SDS011;59739;47.696;11.746;2024-02-16T12:29:40;1.75;;;1.02;;
71869;SDS011;59739;47.696;11.746;2024-02-16T12:32:06;2.00;;;0.75;;
71869;SDS011;59739;47.696;11.746;2024-02-16T12:34:34;1.30;;;0.80;;
71869;SDS011;59739;47.696;11.746;2024-02-16T12:37:05;2.00;;;0.60;;
71869;SDS011;59739;47.696;11.746;2024-02-16T12:39:33;1.27;;;0.70;;
71869;SDS011;59739;47.696;11.746;2024-02-16T12:41:59;1.15;;;0.80;;
71869;SDS011;59739;47.696;11.746;2024-02-16T12:44:25;0.98;;;0.77;;
71869;SDS011;59739;47.696;11.746;2024-02-16T12:46:51;2.05;;;0.80;;
71869;SDS011;59739;47.696;11.746;2024-02-16T12:49:17;4.43;;;1.02;;
71869;SDS011;59739;47.696;11.746;2024-02-16T12:51:46;2.05;;;0.95;;
71869;SDS011;59739;47.696;11.746;2024-02-16T12:54:15;2.83;;;0.98;;
71869;SDS011;59739;47.696;11.746;2024-02-16T12:56:44;2.42;;;1.10;;
71869;SDS011;59739;47.696;11.746;2024-02-16T12:59:11;3.00;;;0.80;;
71869;SDS011;59739;47.696;11.746;2024-02-16T13:01:38;3.65;;;1.13;;
71869;SDS011;59739;47.696;11.746;2024-02-16T13:04:06;3.15;;;1.10;;
71869;SDS011;59739;47.696;11.746;2024-02-16T13:06:32;2.25;;;1.10;;
71869;SDS011;59739;47.696;11.746;2024-02-16T13:08:58;3.60;;;1.35;;
71869;SDS011;59739;47.696;11.746;2024-02-16T13:11:24;4.78;;;1.50;;
71869;SDS011;59739;47.696;11.746;2024-02-16T13:13:50;2.05;;;1.20;;
71869;SDS011;59739;47.696;11.746;2024-02-16T13:16:16;5.45;;;1.30;;
71869;SDS011;59739;47.696;11.746;2024-02-16T13:18:43;2.63;;;1.10;;
71869;SDS011;59739;47.696;11.746;2024-02-16T13:21:10;2.22;;;1.10;;
71869;SDS011;59739;47.696;11.746;2024-02-16T13:23:36;2.45;;;1.00;;
71869;SDS011;59739;47.696;11.746;2024-02-16T13:26:02;2.05;;;1.20;;
71869;SDS011;59739;47.696;11.746;2024-02-16T13:28:29;1.55;;;1.00;;
71869;SDS011;59739;47.696;11.746;2024-02-16T13:30:55;2.88;;;1.20;;
71869;SDS011;59739;47.696;11.746;2024-02-16T13:33:21;1.88;;;1.00;;
71869;SDS011;59739;47.696;11.746;2024-02-16T13:35:47;3.50;;;1.20;;
71869;SDS011;59739;47.696;11.746;2024-02-16T13:38:13;2.45;;;1.00;;
71869;SDS011;59739;47.696;11.746;2024-02-16T13:41:05;3.50;;;0.93;;
71869;SDS011;59739;47.696;11.746;2024-02-16T13:43:32;2.67;;;1.13;;
71869;SDS011;59739;47.696;11.746;2024-02-16T13:45:58;2.88;;;1.02;;
71869;SDS011;59739;47.696;11.746;2024-02-16T13:48:25;2.78;;;1.40;;
71869;SDS011;59739;47.696;11.746;2024-02-16T13:50:51;2.47;;;1.23;;
71869;SDS011;59739;47.696;11.746;2024-02-16T13:53:18;2.70;;;1.02;;
71869;SDS011;59739;47.696;11.746;2024-02-16T13:55:44;1.48;;;1.00;;
71869;SDS011;59739;47.696;11.746;2024-02-16T13:58:11;2.55;;;0.98;;
71869;SDS011;59739;47.696;11.746;2024-02-16T14:00:37;1.60;;;0.88;;
71869;SDS011;59739;47.696;11.746;2024-02-16T14:03:06;2.28;;;1.10;;
71869;SDS011;59739;47.696;11.746;2024-02-16T14:05:37;3.70;;;1.40;;
71869;SDS011;59739;47.696;11.746;2024-02-16T14:08:04;1.63;;;1.15;;
71869;SDS011;59739;47.696;11.746;2024-02-16T14:10:31;2.10;;;1.08;;
71869;SDS011;59739;47.696;11.746;2024-02-16T14:12:58;2.92;;;1.10;;
71869;SDS011;59739;47.696;11.746;2024-02-16T14:15:24;2.33;;;1.20;;
71869;SDS011;59739;47.696;11.746;2024-02-16T14:17:50;2.40;;;1.10;;
71869;SDS011;59739;47.696;11.746;2024-02-16T14:20:16;1.33;;;1.00;;
71869;SDS011;59739;47.696;11.746;2024-02-16T14:22:42;1.70;;;1.30;;
71869;SDS011;59739;47.696;11.746;2024-02-16T14:25:09;1.48;;;1.00;;
71869;SDS011;59739;47.696;11.746;2024-02-16T14:27:36;1.65;;;1.00;;
71869;SDS011;59739;47.696;11.746;2024-02-16T14:30:03;1.45;;;0.82;;
71869;SDS011;59739;47.696;11.746;2024-02-16T14:32:30;1.65;;;1.00;;
71869;SDS011;59739;47.696;11.746;2024-02-16T14:34:56;1.88;;;1.23;;
71869;SDS011;59739;47.696;11.746;2024-02-16T14:37:25;1.55;;;1.08;;
71869;SDS011;59739;47.696;11.746;2024-02-16T14:39:53;2.08;;;1.10;;
71869;SDS011;59739;47.696;11.746;2024-02-16T14:42:23;2.22;;;1.27;;
71869;SDS011;59739;47.696;11.746;2024-02-16T14:44:50;2.03;;;1.20;;
71869;SDS011;59739;47.696;11.746;2024-02-16T14:47:16;2.65;;;1.00;;